sensor_id;sensor_type;location;lat;lon;timestamp;P1;durP1;ratioP1;P2;durP2;ratioP2
62010;SDS011;47967;51.756;10.174;2023-04-06T04:02:16;10.77;;;4.80;;
62010;SDS011;47967;51.756;10.174;2023-04-06T04:06:19;9.32;;;4.93;;
62010;SDS011;47967;51.756;10.174;2023-04-06T04:10:22;12.07;;;4.72;;
62010;SDS011;47967;51.756;10.174;2023-04-06T04:14:24;10.00;;;4.83;;
62010;SDS011;47967;51.756;10.174;2023-04-06T04:18:29;10.82;;;5.80;;
62010;SDS011;47967;51.756;10.174;2023-04-06T04:22:31;9.05;;;5.15;;
62010;SDS011;47967;51.756;10.174;2023-04-06T04:26:34;12.30;;;5.63;;
62010;SDS011;47967;51.756;10.174;2023-04-06T04:30:37;9.48;;;5.20;;
62010;SDS011;47967;51.756;10.174;2023-04-06T04:34:44;14.18;;;6.38;;
62010;SDS011;47967;51.756;10.174;2023-04-06T04:38:57;11.38;;;6.53;;
62010;SDS011;47967;51.756;10.174;2023-04-06T04:43:00;9.80;;;5.35;;
62010;SDS011;47967;51.756;10.174;2023-04-06T04:47:06;8.85;;;4.82;;
62010;SDS011;47967;51.756;10.174;2023-04-06T04:51:18;9.85;;;5.40;;
62010;SDS011;47967;51.756;10.174;2023-04-06T04:55:30;8.52;;;5.30;;
62010;SDS011;47967;51.756;10.174;2023-04-06T04:59:34;9.15;;;5.55;;
62010;SDS011;47967;51.756;10.174;2023-04-06T05:03:49;10.23;;;5.45;;
62010;SDS011;47967;51.756;10.174;2023-04-06T05:07:53;10.05;;;5.60;;
62010;SDS011;47967;51.756;10.174;2023-04-06T05:12:09;13.38;;;6.40;;
62010;SDS011;47967;51.756;10.174;2023-04-06T05:16:22;14.32;;;6.03;;
62010;SDS011;47967;51.756;10.174;2023-04-06T05:20:25;9.48;;;5.55;;
62010;SDS011;47967;51.756;10.174;2023-04-06T05:24:29;12.52;;;6.20;;
62010;SDS011;47967;51.756;10.174;2023-04-06T05:28:32;9.90;;;5.35;;
62010;SDS011;47967;51.756;10.174;2023-04-06T05:32:36;14.18;;;6.00;;
62010;SDS011;47967;51.756;10.174;2023-04-06T05:36:39;13.32;;;6.18;;
62010;SDS011;47967;51.756;10.174;2023-04-06T05:40:52;10.40;;;6.03;;
62010;SDS011;47967;51.756;10.174;2023-04-06T05:44:58;12.88;;;6.95;;
62010;SDS011;47967;51.756;10.174;2023-04-06T05:49:01;12.30;;;6.72;;
62010;SDS011;47967;51.756;10.174;2023-04-06T05:53:08;15.60;;;6.20;;
62010;SDS011;47967;51.756;10.174;2023-04-06T05:57:17;11.68;;;6.38;;
62010;SDS011;47967;51.756;10.174;2023-04-06T06:01:19;12.73;;;6.90;;
62010;SDS011;47967;51.756;10.174;2023-04-06T06:05:22;10.52;;;5.78;;
62010;SDS011;47967;51.756;10.174;2023-04-06T06:09:26;11.35;;;6.07;;
62010;SDS011;47967;51.756;10.174;2023-04-06T06:13:41;13.48;;;6.85;;
62010;SDS011;47967;51.756;10.174;2023-04-06T06:17:44;12.20;;;6.43;;
62010;SDS011;47967;51.756;10.174;2023-04-06T06:21:46;15.02;;;6.78;;
62010;SDS011;47967;51.756;10.174;2023-04-06T06:25:49;12.98;;;6.55;;
62010;SDS011;47967;51.756;10.174;2023-04-06T06:29:55;12.40;;;7.63;;
62010;SDS011;47967;51.756;10.174;2023-04-06T06:33:59;13.82;;;6.82;;
62010;SDS011;47967;51.756;10.174;2023-04-06T06:38:01;16.30;;;7.45;;
62010;SDS011;47967;51.756;10.174;2023-04-06T06:42:05;11.07;;;6.72;;
62010;SDS011;47967;51.756;10.174;2023-04-06T06:46:28;15.02;;;7.43;;
62010;SDS011;47967;51.756;10.174;2023-04-06T06:50:30;14.10;;;7.18;;
62010;SDS011;47967;51.756;10.174;2023-04-06T06:54:33;12.23;;;6.93;;
62010;SDS011;47967;51.756;10.174;2023-04-06T06:58:36;15.55;;;6.97;;
62010;SDS011;47967;51.756;10.174;2023-04-06T07:02:40;10.40;;;6.83;;
62010;SDS011;47967;51.756;10.174;2023-04-06T07:06:42;17.08;;;7.30;;
62010;SDS011;47967;51.756;10.174;2023-04-06T07:10:45;12.60;;;7.20;;
62010;SDS011;47967;51.756;10.174;2023-04-06T07:14:48;12.60;;;7.75;;
62010;SDS011;47967;51.756;10.174;2023-04-06T07:18:52;11.15;;;6.25;;
62010;SDS011;47967;51.756;10.174;2023-04-06T07:22:55;11.77;;;6.90;;
62010;SDS011;47967;51.756;10.174;2023-04-06T07:26:58;13.57;;;6.90;;
62010;SDS011;47967;51.756;10.174;2023-04-06T07:31:02;13.50;;;7.47;;
62010;SDS011;47967;51.756;10.174;2023-04-06T07:35:06;13.13;;;6.90;;
62010;SDS011;47967;51.756;10.174;2023-04-06T07:39:09;12.55;;;6.88;;
62010;SDS011;47967;51.756;10.174;2023-04-06T07:43:13;15.88;;;7.25;;
62010;SDS011;47967;51.756;10.174;2023-04-06T07:51:20;14.73;;;6.82;;
62010;SDS011;47967;51.756;10.174;2023-04-06T07:55:23;11.20;;;5.75;;
62010;SDS011;47967;51.756;10.174;2023-04-06T07:59:26;9.63;;;6.00;;
62010;SDS011;47967;51.756;10.174;2023-04-06T08:03:29;9.50;;;5.50;;
62010;SDS011;47967;51.756;10.174;2023-04-06T08:07:33;9.30;;;5.57;;
62010;SDS011;47967;51.756;10.174;2023-04-06T08:11:36;10.57;;;5.45;;
62010;SDS011;47967;51.756;10.174;2023-04-06T08:15:39;10.83;;;5.50;;
62010;SDS011;47967;51.756;10.174;2023-04-06T08:19:42;10.10;;;5.30;;
62010;SDS011;47967;51.756;10.174;2023-04-06T08:23:46;10.13;;;5.75;;
62010;SDS011;47967;51.756;10.174;2023-04-06T08:27:48;10.43;;;5.68;;
62010;SDS011;47967;51.756;10.174;2023-04-06T08:31:51;11.80;;;5.53;;
62010;SDS011;47967;51.756;10.174;2023-04-06T08:35:53;16.07;;;6.10;;
62010;SDS011;47967;51.756;10.174;2023-04-06T08:39:58;13.40;;;5.80;;
62010;SDS011;47967;51.756;10.174;2023-04-06T08:44:01;8.85;;;5.20;;
62010;SDS011;47967;51.756;10.174;2023-04-06T08:48:04;11.35;;;6.55;;
62010;SDS011;47967;51.756;10.174;2023-04-06T08:52:08;9.43;;;5.60;;
62010;SDS011;47967;51.756;10.174;2023-04-06T08:56:14;10.82;;;6.07;;
62010;SDS011;47967;51.756;10.174;2023-04-06T09:00:17;10.55;;;5.53;;
62010;SDS011;47967;51.756;10.174;2023-04-06T09:04:20;9.88;;;5.50;;
62010;SDS011;47967;51.756;10.174;2023-04-06T09:08:23;10.37;;;5.43;;
62010;SDS011;47967;51.756;10.174;2023-04-06T09:12:27;10.30;;;5.60;;
62010;SDS011;47967;51.756;10.174;2023-04-06T09:16:38;10.02;;;6.10;;
62010;SDS011;47967;51.756;10.174;2023-04-06T09:20:42;11.85;;;5.82;;
62010;SDS011;47967;51.756;10.174;2023-04-06T09:24:45;11.38;;;6.30;;
62010;SDS011;47967;51.756;10.174;2023-04-06T09:28:50;9.77;;;5.60;;
62010;SDS011;47967;51.756;10.174;2023-04-06T09:32:54;8.98;;;5.57;;
62010;SDS011;47967;51.756;10.174;2023-04-06T09:36:57;10.38;;;5.57;;
62010;SDS011;47967;51.756;10.174;2023-04-06T09:41:00;14.70;;;6.23;;
62010;SDS011;47967;51.756;10.174;2023-04-06T09:45:05;11.25;;;5.82;;
62010;SDS011;47967;51.756;10.174;2023-04-06T09:49:08;14.77;;;5.80;;
62010;SDS011;47967;51.756;10.174;2023-04-06T09:53:12;9.73;;;5.90;;
62010;SDS011;47967;51.756;10.174;2023-04-06T09:57:18;9.73;;;5.95;;
62010;SDS011;47967;51.756;10.174;2023-04-06T10:01:27;9.60;;;5.88;;
62010;SDS011;47967;51.756;10.174;2023-04-06T10:05:32;10.02;;;5.95;;
62010;SDS011;47967;51.756;10.174;2023-04-06T10:09:39;11.27;;;6.03;;
62010;SDS011;47967;51.756;10.174;2023-04-06T10:13:41;12.47;;;6.00;;
62010;SDS011;47967;51.756;10.174;2023-04-06T10:17:46;8.80;;;5.07;;
62010;SDS011;47967;51.756;10.174;2023-04-06T10:21:50;11.15;;;5.95;;
62010;SDS011;47967;51.756;10.174;2023-04-06T10:25:57;10.77;;;6.05;;
62010;SDS011;47967;51.756;10.174;2023-04-06T10:30:01;8.80;;;5.88;;
62010;SDS011;47967;51.756;10.174;2023-04-06T10:34:06;11.80;;;6.18;;
62010;SDS011;47967;51.756;10.174;2023-04-06T10:38:09;9.60;;;5.45;;
62010;SDS011;47967;51.756;10.174;2023-04-06T10:42:12;11.55;;;6.05;;
62010;SDS011;47967;51.756;10.174;2023-04-06T10:46:15;9.90;;;5.97;;
62010;SDS011;47967;51.756;10.174;2023-04-06T10:50:28;9.85;;;5.57;;
62010;SDS011;47967;51.756;10.174;2023-04-06T10:54:31;9.25;;;5.60;;
62010;SDS011;47967;51.756;10.174;2023-04-06T10:58:34;11.63;;;6.45;;
62010;SDS011;47967;51.756;10.174;2023-04-06T11:02:37;9.68;;;5.53;;
62010;SDS011;47967;51.756;10.174;2023-04-06T11:06:41;11.37;;;5.60;;
62010;SDS011;47967;51.756;10.174;2023-04-06T11:10:48;8.35;;;5.15;;
62010;SDS011;47967;51.756;10.174;2023-04-06T11:14:54;9.37;;;5.50;;
62010;SDS011;47967;51.756;10.174;2023-04-06T11:19:03;8.40;;;5.18;;
62010;SDS011;47967;51.756;10.174;2023-04-06T11:23:28;11.18;;;5.70;;
62010;SDS011;47967;51.756;10.174;2023-04-06T11:27:31;9.63;;;5.95;;
62010;SDS011;47967;51.756;10.174;2023-04-06T11:31:37;9.50;;;5.60;;
62010;SDS011;47967;51.756;10.174;2023-04-06T11:35:41;8.10;;;5.55;;
62010;SDS011;47967;51.756;10.174;2023-04-06T11:39:48;8.60;;;5.47;;
62010;SDS011;47967;51.756;10.174;2023-04-06T11:43:54;8.98;;;5.80;;
62010;SDS011;47967;51.756;10.174;2023-04-06T11:47:57;9.55;;;5.43;;
62010;SDS011;47967;51.756;10.174;2023-04-06T11:52:01;10.38;;;5.82;;
62010;SDS011;47967;51.756;10.174;2023-04-06T11:56:06;10.30;;;6.05;;
62010;SDS011;47967;51.756;10.174;2023-04-06T12:00:09;14.20;;;5.80;;
62010;SDS011;47967;51.756;10.174;2023-04-06T12:04:13;11.68;;;6.88;;
62010;SDS011;47967;51.756;10.174;2023-04-06T12:08:16;11.53;;;5.70;;
62010;SDS011;47967;51.756;10.174;2023-04-06T12:12:20;10.17;;;6.03;;
62010;SDS011;47967;51.756;10.174;2023-04-06T12:16:22;10.00;;;5.63;;
62010;SDS011;47967;51.756;10.174;2023-04-06T12:20:25;9.00;;;5.70;;
62010;SDS011;47967;51.756;10.174;2023-04-06T12:24:28;12.00;;;6.20;;
62010;SDS011;47967;51.756;10.174;2023-04-06T12:28:32;10.27;;;5.90;;
62010;SDS011;47967;51.756;10.174;2023-04-06T12:32:34;13.55;;;6.75;;
62010;SDS011;47967;51.756;10.174;2023-04-06T12:36:37;11.67;;;6.37;;
62010;SDS011;47967;51.756;10.174;2023-04-06T12:40:40;10.25;;;6.40;;
62010;SDS011;47967;51.756;10.174;2023-04-06T12:44:44;9.93;;;6.33;;
62010;SDS011;47967;51.756;10.174;2023-04-06T12:48:48;11.25;;;6.82;;
62010;SDS011;47967;51.756;10.174;2023-04-06T12:52:51;12.00;;;6.60;;
62010;SDS011;47967;51.756;10.174;2023-04-06T12:56:53;12.17;;;7.17;;
62010;SDS011;47967;51.756;10.174;2023-04-06T13:05:04;11.02;;;6.57;;
62010;SDS011;47967;51.756;10.174;2023-04-06T13:09:07;11.70;;;6.97;;
62010;SDS011;47967;51.756;10.174;2023-04-06T13:13:09;11.63;;;7.07;;
62010;SDS011;47967;51.756;10.174;2023-04-06T13:17:13;10.30;;;6.80;;
62010;SDS011;47967;51.756;10.174;2023-04-06T13:21:17;12.73;;;6.93;;
62010;SDS011;47967;51.756;10.174;2023-04-06T13:25:21;12.15;;;7.10;;
62010;SDS011;47967;51.756;10.174;2023-04-06T13:29:24;11.30;;;6.87;;
62010;SDS011;47967;51.756;10.174;2023-04-06T13:33:28;12.20;;;7.13;;
62010;SDS011;47967;51.756;10.174;2023-04-06T13:37:32;11.25;;;7.43;;
62010;SDS011;47967;51.756;10.174;2023-04-06T13:41:35;11.35;;;6.93;;
62010;SDS011;47967;51.756;10.174;2023-04-06T13:45:37;12.97;;;6.90;;
62010;SDS011;47967;51.756;10.174;2023-04-06T13:49:41;10.53;;;6.93;;
62010;SDS011;47967;51.756;10.174;2023-04-06T13:53:44;9.82;;;6.40;;
62010;SDS011;47967;51.756;10.174;2023-04-06T13:57:46;11.47;;;6.37;;
62010;SDS011;47967;51.756;10.174;2023-04-06T14:01:49;10.33;;;7.20;;
62010;SDS011;47967;51.756;10.174;2023-04-06T14:05:53;10.90;;;6.83;;
62010;SDS011;47967;51.756;10.174;2023-04-06T14:09:58;11.80;;;6.82;;
62010;SDS011;47967;51.756;10.174;2023-04-06T14:14:01;12.30;;;6.97;;
62010;SDS011;47967;51.756;10.174;2023-04-06T14:18:03;11.33;;;7.60;;
62010;SDS011;47967;51.756;10.174;2023-04-06T14:26:11;11.02;;;6.68;;
62010;SDS011;47967;51.756;10.174;2023-04-06T14:30:14;11.27;;;6.73;;
62010;SDS011;47967;51.756;10.174;2023-04-06T14:34:17;11.57;;;6.85;;
62010;SDS011;47967;51.756;10.174;2023-04-06T14:38:20;11.57;;;6.93;;
62010;SDS011;47967;51.756;10.174;2023-04-06T14:42:23;11.27;;;6.88;;
62010;SDS011;47967;51.756;10.174;2023-04-06T14:46:26;10.53;;;6.50;;
62010;SDS011;47967;51.756;10.174;2023-04-06T14:54:33;10.32;;;6.40;;
62010;SDS011;47967;51.756;10.174;2023-04-06T14:58:35;9.98;;;6.40;;
62010;SDS011;47967;51.756;10.174;2023-04-06T15:02:38;10.47;;;6.43;;
62010;SDS011;47967;51.756;10.174;2023-04-06T15:06:41;9.45;;;6.07;;
62010;SDS011;47967;51.756;10.174;2023-04-06T15:10:45;9.57;;;6.07;;
62010;SDS011;47967;51.756;10.174;2023-04-06T15:14:48;10.63;;;5.45;;
62010;SDS011;47967;51.756;10.174;2023-04-06T15:18:50;12.70;;;6.30;;
62010;SDS011;47967;51.756;10.174;2023-04-06T15:22:53;9.07;;;6.07;;
62010;SDS011;47967;51.756;10.174;2023-04-06T15:26:57;9.65;;;5.60;;
62010;SDS011;47967;51.756;10.174;2023-04-06T15:30:59;10.48;;;5.82;;
62010;SDS011;47967;51.756;10.174;2023-04-06T15:35:10;10.52;;;5.57;;
62010;SDS011;47967;51.756;10.174;2023-04-06T15:39:13;9.63;;;6.13;;
62010;SDS011;47967;51.756;10.174;2023-04-06T15:43:17;9.73;;;6.00;;
62010;SDS011;47967;51.756;10.174;2023-04-06T15:47:20;9.70;;;5.78;;
62010;SDS011;47967;51.756;10.174;2023-04-06T15:51:22;9.03;;;5.37;;
62010;SDS011;47967;51.756;10.174;2023-04-06T15:55:26;8.25;;;5.80;;
62010;SDS011;47967;51.756;10.174;2023-04-06T15:59:30;11.87;;;6.33;;
62010;SDS011;47967;51.756;10.174;2023-04-06T16:03:32;10.10;;;5.55;;
62010;SDS011;47967;51.756;10.174;2023-04-06T16:07:35;11.18;;;5.47;;
62010;SDS011;47967;51.756;10.174;2023-04-06T16:11:38;11.15;;;5.72;;
62010;SDS011;47967;51.756;10.174;2023-04-06T16:15:42;9.60;;;5.60;;
62010;SDS011;47967;51.756;10.174;2023-04-06T16:19:44;8.60;;;5.82;;
62010;SDS011;47967;51.756;10.174;2023-04-06T16:23:47;8.70;;;5.50;;
62010;SDS011;47967;51.756;10.174;2023-04-06T16:27:49;8.23;;;5.33;;
62010;SDS011;47967;51.756;10.174;2023-04-06T16:31:53;9.68;;;5.55;;
62010;SDS011;47967;51.756;10.174;2023-04-06T16:35:56;10.13;;;5.13;;
62010;SDS011;47967;51.756;10.174;2023-04-06T16:39:58;9.23;;;5.27;;
62010;SDS011;47967;51.756;10.174;2023-04-06T16:44:01;8.50;;;5.47;;
62010;SDS011;47967;51.756;10.174;2023-04-06T16:48:05;10.27;;;4.80;;
62010;SDS011;47967;51.756;10.174;2023-04-06T16:52:08;8.45;;;5.22;;
62010;SDS011;47967;51.756;10.174;2023-04-06T16:56:11;10.15;;;4.85;;
62010;SDS011;47967;51.756;10.174;2023-04-06T17:00:14;9.83;;;4.97;;
62010;SDS011;47967;51.756;10.174;2023-04-06T17:04:19;11.50;;;5.38;;
62010;SDS011;47967;51.756;10.174;2023-04-06T17:08:22;8.77;;;5.13;;
62010;SDS011;47967;51.756;10.174;2023-04-06T17:12:24;9.63;;;5.80;;
62010;SDS011;47967;51.756;10.174;2023-04-06T17:16:27;8.88;;;5.43;;
62010;SDS011;47967;51.756;10.174;2023-04-06T17:20:31;8.53;;;4.90;;
62010;SDS011;47967;51.756;10.174;2023-04-06T17:24:35;9.48;;;5.43;;
62010;SDS011;47967;51.756;10.174;2023-04-06T17:28:38;12.73;;;7.43;;
62010;SDS011;47967;51.756;10.174;2023-04-06T17:32:40;18.35;;;10.27;;
62010;SDS011;47967;51.756;10.174;2023-04-06T17:36:45;17.55;;;10.95;;
62010;SDS011;47967;51.756;10.174;2023-04-06T17:40:48;20.05;;;9.10;;
62010;SDS011;47967;51.756;10.174;2023-04-06T17:44:51;14.80;;;9.10;;
62010;SDS011;47967;51.756;10.174;2023-04-06T17:48:53;12.00;;;6.85;;
62010;SDS011;47967;51.756;10.174;2023-04-06T17:52:57;7.78;;;5.15;;
62010;SDS011;47967;51.756;10.174;2023-04-06T17:57:00;11.18;;;5.95;;
62010;SDS011;47967;51.756;10.174;2023-04-06T18:01:06;16.30;;;6.07;;
62010;SDS011;47967;51.756;10.174;2023-04-06T18:05:11;10.98;;;5.78;;
62010;SDS011;47967;51.756;10.174;2023-04-06T18:09:15;17.42;;;7.60;;
62010;SDS011;47967;51.756;10.174;2023-04-06T18:13:18;16.00;;;6.53;;
62010;SDS011;47967;51.756;10.174;2023-04-06T18:17:21;12.95;;;6.30;;
62010;SDS011;47967;51.756;10.174;2023-04-06T18:21:23;16.53;;;6.27;;
62010;SDS011;47967;51.756;10.174;2023-04-06T18:25:28;9.77;;;5.30;;
62010;SDS011;47967;51.756;10.174;2023-04-06T18:29:31;9.93;;;5.82;;
62010;SDS011;47967;51.756;10.174;2023-04-06T18:33:34;9.05;;;5.63;;
62010;SDS011;47967;51.756;10.174;2023-04-06T18:37:36;10.07;;;5.75;;
62010;SDS011;47967;51.756;10.174;2023-04-06T18:41:40;13.00;;;6.40;;
62010;SDS011;47967;51.756;10.174;2023-04-06T18:45:43;11.65;;;6.57;;
62010;SDS011;47967;51.756;10.174;2023-04-06T18:49:46;11.23;;;6.43;;
62010;SDS011;47967;51.756;10.174;2023-04-06T18:53:50;9.40;;;5.95;;
62010;SDS011;47967;51.756;10.174;2023-04-06T18:57:53;11.07;;;6.32;;
62010;SDS011;47967;51.756;10.174;2023-04-06T19:01:56;11.00;;;6.35;;
62010;SDS011;47967;51.756;10.174;2023-04-06T19:05:59;11.73;;;6.50;;
62010;SDS011;47967;51.756;10.174;2023-04-06T19:10:02;11.85;;;7.70;;
62010;SDS011;47967;51.756;10.174;2023-04-06T19:14:07;12.65;;;7.63;;
62010;SDS011;47967;51.756;10.174;2023-04-06T19:18:10;16.20;;;9.13;;
62010;SDS011;47967;51.756;10.174;2023-04-06T19:22:12;15.50;;;7.63;;
62010;SDS011;47967;51.756;10.174;2023-04-06T19:26:16;12.18;;;7.50;;
62010;SDS011;47967;51.756;10.174;2023-04-06T19:30:21;12.15;;;7.80;;
62010;SDS011;47967;51.756;10.174;2023-04-06T19:34:24;16.45;;;8.05;;
62010;SDS011;47967;51.756;10.174;2023-04-06T19:38:28;14.10;;;8.15;;
62010;SDS011;47967;51.756;10.174;2023-04-06T19:42:31;13.93;;;7.97;;
62010;SDS011;47967;51.756;10.174;2023-04-06T19:46:35;15.10;;;8.23;;
62010;SDS011;47967;51.756;10.174;2023-04-06T19:50:38;14.90;;;8.77;;
62010;SDS011;47967;51.756;10.174;2023-04-06T19:54:41;16.13;;;9.00;;
62010;SDS011;47967;51.756;10.174;2023-04-06T19:58:47;16.35;;;8.50;;
62010;SDS011;47967;51.756;10.174;2023-04-06T20:02:51;15.45;;;8.57;;
62010;SDS011;47967;51.756;10.174;2023-04-06T20:06:54;16.70;;;8.20;;
62010;SDS011;47967;51.756;10.174;2023-04-06T20:11:00;13.02;;;8.10;;
62010;SDS011;47967;51.756;10.174;2023-04-06T20:15:03;16.30;;;8.77;;
62010;SDS011;47967;51.756;10.174;2023-04-06T20:19:07;33.25;;;12.18;;
62010;SDS011;47967;51.756;10.174;2023-04-06T20:23:10;14.90;;;8.60;;
62010;SDS011;47967;51.756;10.174;2023-04-06T20:27:13;12.93;;;7.78;;
62010;SDS011;47967;51.756;10.174;2023-04-06T20:31:15;14.90;;;8.87;;
62010;SDS011;47967;51.756;10.174;2023-04-06T20:35:19;14.77;;;8.30;;
62010;SDS011;47967;51.756;10.174;2023-04-06T20:39:22;16.80;;;8.85;;
62010;SDS011;47967;51.756;10.174;2023-04-06T20:43:25;17.17;;;8.60;;
62010;SDS011;47967;51.756;10.174;2023-04-06T20:47:29;15.48;;;8.93;;
62010;SDS011;47967;51.756;10.174;2023-04-06T20:51:33;14.02;;;8.05;;
62010;SDS011;47967;51.756;10.174;2023-04-06T20:55:38;14.15;;;8.50;;
62010;SDS011;47967;51.756;10.174;2023-04-06T20:59:41;18.30;;;9.35;;
